Kouju Lily — 3FGB2 — position and weather

sailwx.info

Track history (hours):
 
Tides and Currents Weather Stations Pressure Air Temp Water Temp Dewpoint Dewpoint Depression Visibility Wind Speed Wind Dir Waves Ship Positions

Kouju Lily

Last reported at 2018-May-14 03:21 UTC. Time now 2018-Jun-25 02:11 UTC.
Position N 01°24' E 104°28'.
Warning: this ship's position is 41 days out of date.

Length 197 m; draft 12.3 m.

Type: Cargo ship. MMSI: 373221000.

Date/timePositionNaut miles runAvg speedWind from/ knotsBaromVisibWave heightAir tempDewpointWater temp
2018-May-14 03:21N 01°24' E 104°28'511.2
2018-May-14 02:56N 01°21' E 104°25'510.1
2018-May-14 02:28N 01°18' E 104°21'5 9.6
2018-May-14 01:58N 01°17' E 104°17'510.1
2018-May-14 01:31N 01°16' E 104°12'510.0
2018-May-14 00:59N 01°16' E 104°07'5 9.4
2018-May-14 00:30N 01°16' E 104°02'3 5.3
2018-May-13 23:59N 01°17' E 104°00'0 0.1
2018-May-13 23:26N 01°18' E 104°00'0 0.3
2018-May-13 22:59N 01°18' E 104°00'0 0.2
2018-May-13 22:29N 01°18' E 104°00'0 0.1
2018-May-13 22:00N 01°18' E 104°00'0 0.0
2018-May-13 21:30N 01°18' E 104°00'0 0.1
2018-May-13 20:57N 01°18' E 104°00'0 0.0
2018-May-13 20:30N 01°18' E 104°00'0 0.0
2018-May-13 19:57N 01°18' E 104°00'0 0.0
2018-May-13 19:30N 01°18' E 104°00'0 0.1
2018-May-13 18:59N 01°18' E 104°00'0 0.0
2018-May-13 18:30N 01°18' E 104°00'0 0.0
2018-May-13 17:59N 01°18' E 104°00'0 0.0
2018-May-13 17:29N 01°18' E 104°00'0 0.0
2018-May-13 16:59N 01°18' E 104°00'0 0.1
2018-May-13 16:31N 01°18' E 104°00'0 0.8
2018-May-13 15:59N 01°17' E 104°00'3 5.5
2018-May-13 15:30N 01°16' E 103°58'1 2.1
2018-May-13 15:00N 01°15' E 103°58'1 3.0
2018-May-13 14:31N 01°14' E 103°58'2 3.9
2018-May-13 14:00N 01°13' E 103°56'2 4.7
2018-May-13 13:30N 01°12' E 103°54'3 6.6
2018-May-13 13:00N 01°11' E 103°51'4 8.1
2018-May-13 12:30N 01°09' E 103°47'510.1
2018-May-13 11:59N 01°05' E 103°43'611.4
2018-May-13 11:30N 01°03' E 103°38'611.8
2018-May-13 10:59N 01°06' E 103°33'611.8
2018-May-13 10:30N 01°09' E 103°28'611.7
2018-May-13 09:57N 01°13' E 103°23'511.3
2018-May-13 09:29N 01°16' E 103°19'  
Track history (hours):
 
Tides and Currents Weather Stations Pressure Air Temp Water Temp Dewpoint Dewpoint Depression Visibility Wind Speed Wind Dir Waves Ship Positions

Kouju Lily

Last reported at 2018-May-14 03:21 UTC. Time now 2018-Jun-25 02:11 UTC.
Position N 01°24' E 104°28'.
Warning: this ship's position is 41 days out of date.

Length 197 m; draft 12.3 m.

Type: Cargo ship. MMSI: 373221000.

Date/timePositionNaut miles runAvg speedWind from/ knotsBaromVisibWave heightAir tempDewpointWater temp
2018-May-14 03:21N 01°24' E 104°28'511.2
2018-May-14 02:56N 01°21' E 104°25'510.1
2018-May-14 02:28N 01°18' E 104°21'5 9.6
2018-May-14 01:58N 01°17' E 104°17'510.1
2018-May-14 01:31N 01°16' E 104°12'510.0
2018-May-14 00:59N 01°16' E 104°07'5 9.4
2018-May-14 00:30N 01°16' E 104°02'3 5.3
2018-May-13 23:59N 01°17' E 104°00'0 0.1
2018-May-13 23:26N 01°18' E 104°00'0 0.3
2018-May-13 22:59N 01°18' E 104°00'0 0.2
2018-May-13 22:29N 01°18' E 104°00'0 0.1
2018-May-13 22:00N 01°18' E 104°00'0 0.0
2018-May-13 21:30N 01°18' E 104°00'0 0.1
2018-May-13 20:57N 01°18' E 104°00'0 0.0
2018-May-13 20:30N 01°18' E 104°00'0 0.0
2018-May-13 19:57N 01°18' E 104°00'0 0.0
2018-May-13 19:30N 01°18' E 104°00'0 0.1
2018-May-13 18:59N 01°18' E 104°00'0 0.0
2018-May-13 18:30N 01°18' E 104°00'0 0.0
2018-May-13 17:59N 01°18' E 104°00'0 0.0
2018-May-13 17:29N 01°18' E 104°00'0 0.0
2018-May-13 16:59N 01°18' E 104°00'0 0.1
2018-May-13 16:31N 01°18' E 104°00'0 0.8
2018-May-13 15:59N 01°17' E 104°00'3 5.5
2018-May-13 15:30N 01°16' E 103°58'1 2.1
2018-May-13 15:00N 01°15' E 103°58'1 3.0
2018-May-13 14:31N 01°14' E 103°58'2 3.9
2018-May-13 14:00N 01°13' E 103°56'2 4.7
2018-May-13 13:30N 01°12' E 103°54'3 6.6
2018-May-13 13:00N 01°11' E 103°51'4 8.1
2018-May-13 12:30N 01°09' E 103°47'510.1
2018-May-13 11:59N 01°05' E 103°43'611.4
2018-May-13 11:30N 01°03' E 103°38'611.8
2018-May-13 10:59N 01°06' E 103°33'611.8
2018-May-13 10:30N 01°09' E 103°28'611.7
2018-May-13 09:57N 01°13' E 103°23'511.3
2018-May-13 09:29N 01°16' E 103°19'  

Dump ship's entire track history